sensor_id;sensor_type;location;lat;lon;timestamp;P1;durP1;ratioP1;P2;durP2;ratioP2
20671;SDS011;10495;50.922;4.760;2022-09-01T00:01:43;9.13;;;4.23;;
20671;SDS011;10495;50.922;4.760;2022-09-01T00:04:12;9.20;;;4.63;;
20671;SDS011;10495;50.922;4.760;2022-09-01T00:06:39;5.87;;;3.63;;
20671;SDS011;10495;50.922;4.760;2022-09-01T00:09:07;6.25;;;3.67;;
20671;SDS011;10495;50.922;4.760;2022-09-01T00:11:35;6.83;;;3.90;;
20671;SDS011;10495;50.922;4.760;2022-09-01T00:14:01;5.43;;;3.67;;
20671;SDS011;10495;50.922;4.760;2022-09-01T00:16:28;7.97;;;3.70;;
20671;SDS011;10495;50.922;4.760;2022-09-01T00:18:56;6.40;;;4.00;;
20671;SDS011;10495;50.922;4.760;2022-09-01T00:21:41;7.53;;;3.73;;
20671;SDS011;10495;50.922;4.760;2022-09-01T00:24:09;5.47;;;3.63;;
20671;SDS011;10495;50.922;4.760;2022-09-01T00:26:36;5.03;;;3.60;;
20671;SDS011;10495;50.922;4.760;2022-09-01T00:29:02;5.33;;;3.40;;
20671;SDS011;10495;50.922;4.760;2022-09-01T00:31:28;5.37;;;3.70;;
20671;SDS011;10495;50.922;4.760;2022-09-01T00:33:55;4.93;;;3.37;;
20671;SDS011;10495;50.922;4.760;2022-09-01T00:36:20;4.87;;;4.00;;
20671;SDS011;10495;50.922;4.760;2022-09-01T00:38:47;7.53;;;5.13;;
20671;SDS011;10495;50.922;4.760;2022-09-01T00:41:13;6.77;;;4.17;;
20671;SDS011;10495;50.922;4.760;2022-09-01T00:43:42;5.90;;;4.83;;
20671;SDS011;10495;50.922;4.760;2022-09-01T00:46:17;7.23;;;5.00;;
20671;SDS011;10495;50.922;4.760;2022-09-01T00:48:52;11.93;;;6.40;;
20671;SDS011;10495;50.922;4.760;2022-09-01T00:51:21;8.40;;;5.60;;
20671;SDS011;10495;50.922;4.760;2022-09-01T00:53:47;8.97;;;5.37;;
20671;SDS011;10495;50.922;4.760;2022-09-01T00:56:13;12.03;;;6.57;;
20671;SDS011;10495;50.922;4.760;2022-09-01T00:58:39;10.43;;;6.27;;
20671;SDS011;10495;50.922;4.760;2022-09-01T01:01:06;16.53;;;6.93;;
20671;SDS011;10495;50.922;4.760;2022-09-01T01:03:34;10.30;;;6.20;;
20671;SDS011;10495;50.922;4.760;2022-09-01T01:06:00;9.50;;;6.20;;
20671;SDS011;10495;50.922;4.760;2022-09-01T01:08:33;12.77;;;6.23;;
20671;SDS011;10495;50.922;4.760;2022-09-01T01:11:09;10.03;;;6.47;;
20671;SDS011;10495;50.922;4.760;2022-09-01T01:13:46;13.90;;;6.37;;
20671;SDS011;10495;50.922;4.760;2022-09-01T01:16:15;8.30;;;4.67;;
20671;SDS011;10495;50.922;4.760;2022-09-01T01:18:41;7.33;;;4.80;;
20671;SDS011;10495;50.922;4.760;2022-09-01T01:21:07;8.37;;;6.13;;
20671;SDS011;10495;50.922;4.760;2022-09-01T01:24:05;10.73;;;6.37;;
20671;SDS011;10495;50.922;4.760;2022-09-01T01:26:48;7.33;;;5.67;;
20671;SDS011;10495;50.922;4.760;2022-09-01T01:29:14;13.33;;;6.87;;
20671;SDS011;10495;50.922;4.760;2022-09-01T01:31:41;13.77;;;6.97;;
20671;SDS011;10495;50.922;4.760;2022-09-01T01:34:07;9.93;;;7.50;;
20671;SDS011;10495;50.922;4.760;2022-09-01T01:36:35;9.93;;;7.17;;
20671;SDS011;10495;50.922;4.760;2022-09-01T01:41:32;9.83;;;6.77;;
20671;SDS011;10495;50.922;4.760;2022-09-01T01:43:58;14.07;;;7.13;;
20671;SDS011;10495;50.922;4.760;2022-09-01T01:46:28;11.83;;;7.53;;
20671;SDS011;10495;50.922;4.760;2022-09-01T01:48:54;13.73;;;7.03;;
20671;SDS011;10495;50.922;4.760;2022-09-01T01:51:21;11.90;;;7.03;;
20671;SDS011;10495;50.922;4.760;2022-09-01T01:53:54;13.43;;;7.60;;
20671;SDS011;10495;50.922;4.760;2022-09-01T01:56:21;14.67;;;7.77;;
20671;SDS011;10495;50.922;4.760;2022-09-01T01:58:51;11.93;;;7.53;;
20671;SDS011;10495;50.922;4.760;2022-09-01T02:01:18;12.30;;;7.77;;
20671;SDS011;10495;50.922;4.760;2022-09-01T02:03:46;13.23;;;6.77;;
20671;SDS011;10495;50.922;4.760;2022-09-01T02:06:12;13.77;;;7.07;;
20671;SDS011;10495;50.922;4.760;2022-09-01T02:08:38;10.80;;;7.10;;
20671;SDS011;10495;50.922;4.760;2022-09-01T02:11:05;13.03;;;7.47;;
20671;SDS011;10495;50.922;4.760;2022-09-01T02:13:31;12.37;;;7.70;;
20671;SDS011;10495;50.922;4.760;2022-09-01T02:16:03;11.97;;;7.67;;
20671;SDS011;10495;50.922;4.760;2022-09-01T02:18:38;16.07;;;7.57;;
20671;SDS011;10495;50.922;4.760;2022-09-01T02:21:12;11.77;;;6.90;;
20671;SDS011;10495;50.922;4.760;2022-09-01T02:23:44;8.60;;;5.83;;
20671;SDS011;10495;50.922;4.760;2022-09-01T02:26:14;9.20;;;5.47;;
20671;SDS011;10495;50.922;4.760;2022-09-01T02:28:43;8.83;;;5.60;;
20671;SDS011;10495;50.922;4.760;2022-09-01T02:31:13;8.77;;;5.90;;
20671;SDS011;10495;50.922;4.760;2022-09-01T02:33:39;8.60;;;5.93;;
20671;SDS011;10495;50.922;4.760;2022-09-01T02:36:10;10.73;;;7.17;;
20671;SDS011;10495;50.922;4.760;2022-09-01T02:38:39;12.67;;;6.80;;
20671;SDS011;10495;50.922;4.760;2022-09-01T02:41:10;10.50;;;6.43;;
20671;SDS011;10495;50.922;4.760;2022-09-01T02:43:37;12.93;;;6.60;;
20671;SDS011;10495;50.922;4.760;2022-09-01T02:46:03;11.67;;;6.37;;
20671;SDS011;10495;50.922;4.760;2022-09-01T02:48:38;9.93;;;6.13;;
20671;SDS011;10495;50.922;4.760;2022-09-01T02:51:08;8.23;;;6.17;;
20671;SDS011;10495;50.922;4.760;2022-09-01T02:53:36;12.63;;;6.93;;
20671;SDS011;10495;50.922;4.760;2022-09-01T02:56:03;10.97;;;7.27;;
20671;SDS011;10495;50.922;4.760;2022-09-01T02:58:34;9.33;;;6.23;;
20671;SDS011;10495;50.922;4.760;2022-09-01T03:01:31;9.47;;;6.17;;
20671;SDS011;10495;50.922;4.760;2022-09-01T03:03:59;9.03;;;5.43;;
20671;SDS011;10495;50.922;4.760;2022-09-01T03:06:27;11.20;;;6.87;;
20671;SDS011;10495;50.922;4.760;2022-09-01T03:08:55;9.40;;;5.67;;
20671;SDS011;10495;50.922;4.760;2022-09-01T03:11:24;8.17;;;5.53;;
20671;SDS011;10495;50.922;4.760;2022-09-01T03:13:50;8.77;;;5.77;;
20671;SDS011;10495;50.922;4.760;2022-09-01T03:16:18;9.83;;;7.03;;
20671;SDS011;10495;50.922;4.760;2022-09-01T03:18:43;11.50;;;7.23;;
20671;SDS011;10495;50.922;4.760;2022-09-01T03:21:09;13.20;;;6.83;;
20671;SDS011;10495;50.922;4.760;2022-09-01T03:23:40;8.97;;;6.00;;
20671;SDS011;10495;50.922;4.760;2022-09-01T03:26:06;10.80;;;6.43;;
20671;SDS011;10495;50.922;4.760;2022-09-01T03:28:32;10.07;;;6.40;;
20671;SDS011;10495;50.922;4.760;2022-09-01T03:30:57;9.17;;;5.70;;
20671;SDS011;10495;50.922;4.760;2022-09-01T03:33:24;10.30;;;6.80;;
20671;SDS011;10495;50.922;4.760;2022-09-01T03:35:51;11.50;;;6.67;;
20671;SDS011;10495;50.922;4.760;2022-09-01T03:38:17;9.70;;;6.10;;
20671;SDS011;10495;50.922;4.760;2022-09-01T03:40:47;10.93;;;7.87;;
20671;SDS011;10495;50.922;4.760;2022-09-01T03:43:14;9.63;;;6.63;;
20671;SDS011;10495;50.922;4.760;2022-09-01T03:45:40;11.07;;;7.50;;
20671;SDS011;10495;50.922;4.760;2022-09-01T03:48:07;12.93;;;8.27;;
20671;SDS011;10495;50.922;4.760;2022-09-01T03:50:37;12.27;;;7.33;;
20671;SDS011;10495;50.922;4.760;2022-09-01T03:53:10;9.77;;;6.70;;
20671;SDS011;10495;50.922;4.760;2022-09-01T03:55:42;11.63;;;6.97;;
20671;SDS011;10495;50.922;4.760;2022-09-01T03:58:09;12.03;;;7.80;;
20671;SDS011;10495;50.922;4.760;2022-09-01T04:00:40;12.67;;;7.70;;
20671;SDS011;10495;50.922;4.760;2022-09-01T04:03:08;12.83;;;8.23;;
20671;SDS011;10495;50.922;4.760;2022-09-01T04:05:37;12.47;;;7.73;;
20671;SDS011;10495;50.922;4.760;2022-09-01T04:08:06;12.63;;;8.57;;
20671;SDS011;10495;50.922;4.760;2022-09-01T04:10:36;14.43;;;8.57;;
20671;SDS011;10495;50.922;4.760;2022-09-01T04:13:10;9.70;;;7.63;;
20671;SDS011;10495;50.922;4.760;2022-09-01T04:15:36;13.67;;;8.13;;
20671;SDS011;10495;50.922;4.760;2022-09-01T04:18:02;14.00;;;7.80;;
20671;SDS011;10495;50.922;4.760;2022-09-01T04:20:34;12.60;;;8.17;;
20671;SDS011;10495;50.922;4.760;2022-09-01T04:23:31;12.97;;;8.27;;
20671;SDS011;10495;50.922;4.760;2022-09-01T04:26:11;14.40;;;7.90;;
20671;SDS011;10495;50.922;4.760;2022-09-01T04:28:40;16.13;;;7.90;;
20671;SDS011;10495;50.922;4.760;2022-09-01T04:31:10;12.17;;;8.83;;
20671;SDS011;10495;50.922;4.760;2022-09-01T04:33:43;15.47;;;8.40;;
20671;SDS011;10495;50.922;4.760;2022-09-01T04:36:18;12.27;;;8.40;;
20671;SDS011;10495;50.922;4.760;2022-09-01T04:38:46;15.43;;;9.27;;
20671;SDS011;10495;50.922;4.760;2022-09-01T04:41:13;15.53;;;8.77;;
20671;SDS011;10495;50.922;4.760;2022-09-01T04:43:44;12.83;;;9.03;;
20671;SDS011;10495;50.922;4.760;2022-09-01T04:46:13;13.97;;;8.97;;
20671;SDS011;10495;50.922;4.760;2022-09-01T04:48:40;16.60;;;8.40;;
20671;SDS011;10495;50.922;4.760;2022-09-01T04:51:07;11.57;;;8.10;;
20671;SDS011;10495;50.922;4.760;2022-09-01T04:53:34;13.13;;;8.63;;
20671;SDS011;10495;50.922;4.760;2022-09-01T04:56:04;11.60;;;8.40;;
20671;SDS011;10495;50.922;4.760;2022-09-01T04:58:31;12.90;;;8.50;;
20671;SDS011;10495;50.922;4.760;2022-09-01T05:00:58;15.27;;;9.23;;
20671;SDS011;10495;50.922;4.760;2022-09-01T05:03:24;11.33;;;7.73;;
20671;SDS011;10495;50.922;4.760;2022-09-01T05:05:51;13.27;;;8.90;;
20671;SDS011;10495;50.922;4.760;2022-09-01T05:08:19;14.23;;;9.17;;
20671;SDS011;10495;50.922;4.760;2022-09-01T05:10:47;13.70;;;9.00;;
20671;SDS011;10495;50.922;4.760;2022-09-01T05:13:16;9.73;;;7.20;;
20671;SDS011;10495;50.922;4.760;2022-09-01T05:15:44;11.83;;;8.43;;
20671;SDS011;10495;50.922;4.760;2022-09-01T05:18:15;12.07;;;7.77;;
20671;SDS011;10495;50.922;4.760;2022-09-01T05:20:47;14.53;;;8.07;;
20671;SDS011;10495;50.922;4.760;2022-09-01T05:23:14;10.60;;;7.77;;
20671;SDS011;10495;50.922;4.760;2022-09-01T05:25:43;11.43;;;7.43;;
20671;SDS011;10495;50.922;4.760;2022-09-01T05:28:13;11.90;;;7.90;;
20671;SDS011;10495;50.922;4.760;2022-09-01T05:30:41;11.10;;;7.70;;
20671;SDS011;10495;50.922;4.760;2022-09-01T05:33:08;12.43;;;8.43;;
20671;SDS011;10495;50.922;4.760;2022-09-01T05:35:35;14.70;;;8.53;;
20671;SDS011;10495;50.922;4.760;2022-09-01T05:38:09;10.00;;;6.87;;
20671;SDS011;10495;50.922;4.760;2022-09-01T05:40:37;10.97;;;7.20;;
20671;SDS011;10495;50.922;4.760;2022-09-01T05:43:08;10.93;;;7.37;;
20671;SDS011;10495;50.922;4.760;2022-09-01T05:45:40;11.47;;;6.80;;
20671;SDS011;10495;50.922;4.760;2022-09-01T05:48:08;11.20;;;5.93;;
20671;SDS011;10495;50.922;4.760;2022-09-01T05:53:10;9.97;;;6.53;;
20671;SDS011;10495;50.922;4.760;2022-09-01T05:55:43;11.27;;;7.57;;
20671;SDS011;10495;50.922;4.760;2022-09-01T05:58:10;10.03;;;7.30;;
20671;SDS011;10495;50.922;4.760;2022-09-01T06:00:40;9.03;;;6.53;;
20671;SDS011;10495;50.922;4.760;2022-09-01T06:03:08;10.50;;;6.47;;
20671;SDS011;10495;50.922;4.760;2022-09-01T06:05:35;12.00;;;7.27;;
20671;SDS011;10495;50.922;4.760;2022-09-01T06:08:02;10.30;;;6.93;;
20671;SDS011;10495;50.922;4.760;2022-09-01T06:10:29;10.57;;;6.57;;
20671;SDS011;10495;50.922;4.760;2022-09-01T06:12:56;9.90;;;5.57;;
20671;SDS011;10495;50.922;4.760;2022-09-01T06:15:25;8.70;;;5.30;;
20671;SDS011;10495;50.922;4.760;2022-09-01T06:17:53;7.70;;;5.77;;
20671;SDS011;10495;50.922;4.760;2022-09-01T06:20:19;6.23;;;4.97;;
20671;SDS011;10495;50.922;4.760;2022-09-01T06:22:47;8.53;;;4.80;;
20671;SDS011;10495;50.922;4.760;2022-09-01T06:25:12;4.67;;;4.17;;
20671;SDS011;10495;50.922;4.760;2022-09-01T06:27:41;7.83;;;4.13;;
20671;SDS011;10495;50.922;4.760;2022-09-01T06:30:08;6.83;;;4.50;;
20671;SDS011;10495;50.922;4.760;2022-09-01T06:32:40;7.80;;;4.50;;
20671;SDS011;10495;50.922;4.760;2022-09-01T06:35:10;9.83;;;4.83;;
20671;SDS011;10495;50.922;4.760;2022-09-01T06:37:37;7.53;;;4.53;;
20671;SDS011;10495;50.922;4.760;2022-09-01T06:40:04;5.83;;;4.60;;
20671;SDS011;10495;50.922;4.760;2022-09-01T06:42:30;6.60;;;4.40;;
20671;SDS011;10495;50.922;4.760;2022-09-01T06:44:59;4.63;;;4.03;;
20671;SDS011;10495;50.922;4.760;2022-09-01T06:47:26;9.77;;;4.23;;
20671;SDS011;10495;50.922;4.760;2022-09-01T06:49:52;9.17;;;4.30;;
20671;SDS011;10495;50.922;4.760;2022-09-01T06:52:22;6.97;;;3.50;;
20671;SDS011;10495;50.922;4.760;2022-09-01T06:54:48;6.13;;;4.10;;
20671;SDS011;10495;50.922;4.760;2022-09-01T06:57:17;5.53;;;3.97;;
20671;SDS011;10495;50.922;4.760;2022-09-01T06:59:43;6.83;;;3.87;;
20671;SDS011;10495;50.922;4.760;2022-09-01T07:02:09;4.40;;;3.87;;
20671;SDS011;10495;50.922;4.760;2022-09-01T07:04:40;7.95;;;3.75;;
20671;SDS011;10495;50.922;4.760;2022-09-01T07:07:10;6.60;;;3.42;;
20671;SDS011;10495;50.922;4.760;2022-09-01T07:09:37;4.68;;;3.45;;
20671;SDS011;10495;50.922;4.760;2022-09-01T07:12:04;7.82;;;3.78;;
20671;SDS011;10495;50.922;4.760;2022-09-01T07:14:30;6.47;;;4.22;;
20671;SDS011;10495;50.922;4.760;2022-09-01T07:16:56;6.57;;;3.58;;
20671;SDS011;10495;50.922;4.760;2022-09-01T07:19:23;6.82;;;3.78;;
20671;SDS011;10495;50.922;4.760;2022-09-01T07:21:50;6.95;;;3.65;;
20671;SDS011;10495;50.922;4.760;2022-09-01T07:24:17;6.72;;;4.00;;
20671;SDS011;10495;50.922;4.760;2022-09-01T07:26:44;4.63;;;3.72;;
20671;SDS011;10495;50.922;4.760;2022-09-01T07:29:15;4.25;;;3.38;;
20671;SDS011;10495;50.922;4.760;2022-09-01T07:31:43;15.48;;;4.07;;
20671;SDS011;10495;50.922;4.760;2022-09-01T07:34:10;6.07;;;3.25;;
20671;SDS011;10495;50.922;4.760;2022-09-01T07:36:38;6.53;;;3.42;;
20671;SDS011;10495;50.922;4.760;2022-09-01T07:39:06;6.75;;;3.47;;
20671;SDS011;10495;50.922;4.760;2022-09-01T07:41:33;3.10;;;2.80;;
20671;SDS011;10495;50.922;4.760;2022-09-01T07:44:00;6.30;;;3.83;;
20671;SDS011;10495;50.922;4.760;2022-09-01T07:46:27;5.97;;;3.38;;
20671;SDS011;10495;50.922;4.760;2022-09-01T07:48:56;4.63;;;2.92;;
20671;SDS011;10495;50.922;4.760;2022-09-01T07:51:23;5.70;;;3.40;;
20671;SDS011;10495;50.922;4.760;2022-09-01T07:53:50;4.63;;;3.03;;
20671;SDS011;10495;50.922;4.760;2022-09-01T07:56:17;5.60;;;3.78;;
20671;SDS011;10495;50.922;4.760;2022-09-01T07:58:45;4.97;;;2.60;;
20671;SDS011;10495;50.922;4.760;2022-09-01T08:01:20;5.95;;;2.90;;
20671;SDS011;10495;50.922;4.760;2022-09-01T08:03:51;7.30;;;2.97;;
20671;SDS011;10495;50.922;4.760;2022-09-01T08:06:21;4.00;;;3.35;;
20671;SDS011;10495;50.922;4.760;2022-09-01T08:08:50;3.83;;;3.17;;
20671;SDS011;10495;50.922;4.760;2022-09-01T08:11:17;4.95;;;2.88;;
20671;SDS011;10495;50.922;4.760;2022-09-01T08:13:49;4.63;;;3.60;;
20671;SDS011;10495;50.922;4.760;2022-09-01T08:16:15;5.03;;;2.97;;
20671;SDS011;10495;50.922;4.760;2022-09-01T08:18:41;5.90;;;3.03;;
20671;SDS011;10495;50.922;4.760;2022-09-01T08:21:09;4.53;;;2.90;;
20671;SDS011;10495;50.922;4.760;2022-09-01T08:23:37;3.30;;;2.85;;
20671;SDS011;10495;50.922;4.760;2022-09-01T08:26:07;4.97;;;3.10;;
20671;SDS011;10495;50.922;4.760;2022-09-01T08:28:38;2.72;;;2.50;;
20671;SDS011;10495;50.922;4.760;2022-09-01T08:31:14;3.15;;;2.83;;
20671;SDS011;10495;50.922;4.760;2022-09-01T08:33:42;5.80;;;3.00;;
20671;SDS011;10495;50.922;4.760;2022-09-01T08:36:10;4.47;;;3.25;;
20671;SDS011;10495;50.922;4.760;2022-09-01T08:38:37;5.53;;;3.05;;
20671;SDS011;10495;50.922;4.760;2022-09-01T08:41:04;4.97;;;3.30;;
20671;SDS011;10495;50.922;4.760;2022-09-01T08:43:49;4.68;;;3.08;;
20671;SDS011;10495;50.922;4.760;2022-09-01T08:46:25;4.28;;;3.13;;
20671;SDS011;10495;50.922;4.760;2022-09-01T08:49:15;6.38;;;2.92;;
20671;SDS011;10495;50.922;4.760;2022-09-01T08:51:49;4.28;;;2.80;;
20671;SDS011;10495;50.922;4.760;2022-09-01T08:59:55;2.97;;;2.60;;
20671;SDS011;10495;50.922;4.760;2022-09-01T09:05:29;4.07;;;2.97;;
20671;SDS011;10495;50.922;4.760;2022-09-01T09:16:08;4.03;;;2.53;;
20671;SDS011;10495;50.922;4.760;2022-09-01T09:18:52;6.43;;;2.83;;
20671;SDS011;10495;50.922;4.760;2022-09-01T09:21:32;3.53;;;2.47;;
20671;SDS011;10495;50.922;4.760;2022-09-01T09:26:39;3.30;;;2.78;;
20671;SDS011;10495;50.922;4.760;2022-09-01T09:29:05;2.90;;;2.55;;
20671;SDS011;10495;50.922;4.760;2022-09-01T09:31:32;2.42;;;2.22;;
20671;SDS011;10495;50.922;4.760;2022-09-01T09:34:02;3.70;;;2.17;;
20671;SDS011;10495;50.922;4.760;2022-09-01T09:36:39;2.22;;;2.03;;
20671;SDS011;10495;50.922;4.760;2022-09-01T09:39:13;5.60;;;2.10;;
20671;SDS011;10495;50.922;4.760;2022-09-01T09:41:42;3.70;;;2.15;;
20671;SDS011;10495;50.922;4.760;2022-09-01T09:44:26;4.38;;;2.17;;
20671;SDS011;10495;50.922;4.760;2022-09-01T09:46:55;2.45;;;2.08;;
20671;SDS011;10495;50.922;4.760;2022-09-01T09:49:29;3.92;;;1.92;;
20671;SDS011;10495;50.922;4.760;2022-09-01T09:54:34;2.78;;;2.00;;
20671;SDS011;10495;50.922;4.760;2022-09-01T10:02:20;4.68;;;1.70;;
20671;SDS011;10495;50.922;4.760;2022-09-01T10:04:53;5.22;;;2.80;;
20671;SDS011;10495;50.922;4.760;2022-09-01T10:07:36;4.05;;;2.30;;
20671;SDS011;10495;50.922;4.760;2022-09-01T10:10:04;2.22;;;2.03;;
20671;SDS011;10495;50.922;4.760;2022-09-01T10:12:48;3.40;;;2.10;;
20671;SDS011;10495;50.922;4.760;2022-09-01T10:15:15;3.45;;;2.28;;
20671;SDS011;10495;50.922;4.760;2022-09-01T10:17:43;10.10;;;2.22;;
20671;SDS011;10495;50.922;4.760;2022-09-01T10:20:19;3.75;;;1.73;;
20671;SDS011;10495;50.922;4.760;2022-09-01T10:22:48;3.88;;;2.10;;
20671;SDS011;10495;50.922;4.760;2022-09-01T10:25:25;3.75;;;1.70;;
20671;SDS011;10495;50.922;4.760;2022-09-01T10:27:54;3.45;;;1.90;;
20671;SDS011;10495;50.922;4.760;2022-09-01T10:30:42;3.10;;;2.03;;
20671;SDS011;10495;50.922;4.760;2022-09-01T10:33:13;3.40;;;1.98;;
20671;SDS011;10495;50.922;4.760;2022-09-01T10:35:41;3.45;;;2.13;;
20671;SDS011;10495;50.922;4.760;2022-09-01T10:38:13;7.55;;;2.00;;
20671;SDS011;10495;50.922;4.760;2022-09-01T10:40:44;7.00;;;2.03;;
20671;SDS011;10495;50.922;4.760;2022-09-01T10:45:47;3.55;;;1.90;;
20671;SDS011;10495;50.922;4.760;2022-09-01T10:50:45;2.60;;;2.00;;
20671;SDS011;10495;50.922;4.760;2022-09-01T10:53:54;3.03;;;2.13;;
20671;SDS011;10495;50.922;4.760;2022-09-01T11:01:10;2.33;;;2.00;;
20671;SDS011;10495;50.922;4.760;2022-09-01T11:03:36;3.20;;;1.77;;
20671;SDS011;10495;50.922;4.760;2022-09-01T11:06:29;2.70;;;2.30;;
20671;SDS011;10495;50.922;4.760;2022-09-01T11:09:04;3.53;;;1.90;;
20671;SDS011;10495;50.922;4.760;2022-09-01T11:11:37;3.28;;;2.03;;
20671;SDS011;10495;50.922;4.760;2022-09-01T11:14:16;2.63;;;1.80;;
20671;SDS011;10495;50.922;4.760;2022-09-01T11:17:09;6.32;;;2.08;;
20671;SDS011;10495;50.922;4.760;2022-09-01T11:27:03;1.92;;;1.77;;
20671;SDS011;10495;50.922;4.760;2022-09-01T11:29:52;5.15;;;2.42;;
20671;SDS011;10495;50.922;4.760;2022-09-01T11:32:21;2.92;;;2.08;;
20671;SDS011;10495;50.922;4.760;2022-09-01T11:34:51;5.43;;;2.20;;
20671;SDS011;10495;50.922;4.760;2022-09-01T11:37:20;4.00;;;2.20;;
20671;SDS011;10495;50.922;4.760;2022-09-01T11:39:49;3.65;;;2.47;;
20671;SDS011;10495;50.922;4.760;2022-09-01T11:42:25;4.15;;;2.20;;
20671;SDS011;10495;50.922;4.760;2022-09-01T11:45:04;2.45;;;2.25;;
20671;SDS011;10495;50.922;4.760;2022-09-01T11:47:39;3.55;;;2.03;;
20671;SDS011;10495;50.922;4.760;2022-09-01T11:52:40;2.60;;;2.00;;
20671;SDS011;10495;50.922;4.760;2022-09-01T11:55:06;3.00;;;2.30;;
20671;SDS011;10495;50.922;4.760;2022-09-01T11:57:37;3.42;;;2.30;;
20671;SDS011;10495;50.922;4.760;2022-09-01T12:00:08;3.22;;;2.40;;
20671;SDS011;10495;50.922;4.760;2022-09-01T12:02:41;3.72;;;2.70;;
20671;SDS011;10495;50.922;4.760;2022-09-01T12:08:14;2.25;;;2.10;;
20671;SDS011;10495;50.922;4.760;2022-09-01T12:10:42;1.90;;;1.80;;
20671;SDS011;10495;50.922;4.760;2022-09-01T12:13:19;4.07;;;2.17;;
20671;SDS011;10495;50.922;4.760;2022-09-01T12:15:54;2.45;;;2.25;;
20671;SDS011;10495;50.922;4.760;2022-09-01T12:20:52;3.15;;;2.20;;
20671;SDS011;10495;50.922;4.760;2022-09-01T12:25:52;6.13;;;2.40;;
20671;SDS011;10495;50.922;4.760;2022-09-01T12:28:27;4.80;;;2.08;;
20671;SDS011;10495;50.922;4.760;2022-09-01T12:31:04;3.65;;;2.83;;
20671;SDS011;10495;50.922;4.760;2022-09-01T12:33:38;2.45;;;2.25;;
20671;SDS011;10495;50.922;4.760;2022-09-01T12:39:17;3.03;;;2.63;;
20671;SDS011;10495;50.922;4.760;2022-09-01T12:41:47;2.70;;;2.50;;
20671;SDS011;10495;50.922;4.760;2022-09-01T12:44:27;5.70;;;2.65;;
20671;SDS011;10495;50.922;4.760;2022-09-01T12:46:55;2.72;;;2.53;;
20671;SDS011;10495;50.922;4.760;2022-09-01T12:49:25;2.45;;;2.25;;
20671;SDS011;10495;50.922;4.760;2022-09-01T12:54:44;2.53;;;2.33;;
20671;SDS011;10495;50.922;4.760;2022-09-01T12:57:19;2.22;;;2.10;;
20671;SDS011;10495;50.922;4.760;2022-09-01T13:00:07;2.42;;;1.90;;
20671;SDS011;10495;50.922;4.760;2022-09-01T13:02:43;3.25;;;2.95;;
20671;SDS011;10495;50.922;4.760;2022-09-01T13:05:28;2.65;;;2.25;;
20671;SDS011;10495;50.922;4.760;2022-09-01T13:08:02;5.45;;;2.35;;
20671;SDS011;10495;50.922;4.760;2022-09-01T13:10:37;2.40;;;2.20;;
20671;SDS011;10495;50.922;4.760;2022-09-01T13:13:06;2.53;;;2.10;;
20671;SDS011;10495;50.922;4.760;2022-09-01T13:15:35;3.90;;;2.03;;
20671;SDS011;10495;50.922;4.760;2022-09-01T13:18:05;2.63;;;2.15;;
20671;SDS011;10495;50.922;4.760;2022-09-01T13:20:30;5.82;;;2.40;;
20671;SDS011;10495;50.922;4.760;2022-09-01T13:22:56;2.90;;;2.28;;
20671;SDS011;10495;50.922;4.760;2022-09-01T13:25:23;2.25;;;2.05;;
20671;SDS011;10495;50.922;4.760;2022-09-01T13:27:49;3.05;;;1.92;;
20671;SDS011;10495;50.922;4.760;2022-09-01T13:30:18;3.67;;;2.10;;
20671;SDS011;10495;50.922;4.760;2022-09-01T13:32:46;3.35;;;1.90;;
20671;SDS011;10495;50.922;4.760;2022-09-01T13:35:14;2.95;;;1.88;;
20671;SDS011;10495;50.922;4.760;2022-09-01T13:40:17;1.95;;;1.60;;
20671;SDS011;10495;50.922;4.760;2022-09-01T13:42:45;2.15;;;1.70;;
20671;SDS011;10495;50.922;4.760;2022-09-01T13:45:14;3.00;;;2.35;;
20671;SDS011;10495;50.922;4.760;2022-09-01T13:47:42;3.67;;;2.08;;
20671;SDS011;10495;50.922;4.760;2022-09-01T13:50:14;2.60;;;1.55;;
20671;SDS011;10495;50.922;4.760;2022-09-01T13:52:43;4.45;;;1.88;;
20671;SDS011;10495;50.922;4.760;2022-09-01T13:55:15;4.78;;;1.90;;
20671;SDS011;10495;50.922;4.760;2022-09-01T13:57:46;1.98;;;1.77;;
20671;SDS011;10495;50.922;4.760;2022-09-01T14:00:13;6.80;;;1.70;;
20671;SDS011;10495;50.922;4.760;2022-09-01T14:02:42;4.72;;;2.28;;
20671;SDS011;10495;50.922;4.760;2022-09-01T14:05:13;2.30;;;1.92;;
20671;SDS011;10495;50.922;4.760;2022-09-01T14:07:40;2.53;;;1.90;;
20671;SDS011;10495;50.922;4.760;2022-09-01T14:10:06;4.53;;;1.80;;
20671;SDS011;10495;50.922;4.760;2022-09-01T14:12:32;1.67;;;1.55;;
20671;SDS011;10495;50.922;4.760;2022-09-01T14:14:59;6.65;;;1.88;;
20671;SDS011;10495;50.922;4.760;2022-09-01T14:17:24;3.17;;;1.60;;
20671;SDS011;10495;50.922;4.760;2022-09-01T14:19:50;3.13;;;1.88;;
20671;SDS011;10495;50.922;4.760;2022-09-01T14:22:16;1.80;;;1.58;;
20671;SDS011;10495;50.922;4.760;2022-09-01T14:24:42;3.70;;;1.70;;
20671;SDS011;10495;50.922;4.760;2022-09-01T14:27:08;1.63;;;1.52;;
20671;SDS011;10495;50.922;4.760;2022-09-01T14:29:33;2.78;;;2.03;;
20671;SDS011;10495;50.922;4.760;2022-09-01T14:32:00;3.58;;;1.80;;
20671;SDS011;10495;50.922;4.760;2022-09-01T14:34:26;2.25;;;1.73;;
20671;SDS011;10495;50.922;4.760;2022-09-01T14:36:51;4.70;;;1.63;;
20671;SDS011;10495;50.922;4.760;2022-09-01T14:39:18;2.63;;;1.83;;
20671;SDS011;10495;50.922;4.760;2022-09-01T14:41:44;1.75;;;1.65;;
20671;SDS011;10495;50.922;4.760;2022-09-01T14:44:09;1.83;;;1.67;;
20671;SDS011;10495;50.922;4.760;2022-09-01T14:46:35;5.38;;;1.85;;
20671;SDS011;10495;50.922;4.760;2022-09-01T14:49:01;2.25;;;1.50;;
20671;SDS011;10495;50.922;4.760;2022-09-01T14:51:28;1.75;;;1.65;;
20671;SDS011;10495;50.922;4.760;2022-09-01T14:53:55;4.75;;;1.60;;
20671;SDS011;10495;50.922;4.760;2022-09-01T14:56:20;2.38;;;1.58;;
20671;SDS011;10495;50.922;4.760;2022-09-01T14:58:47;2.28;;;1.50;;
20671;SDS011;10495;50.922;4.760;2022-09-01T15:01:15;4.07;;;2.08;;
20671;SDS011;10495;50.922;4.760;2022-09-01T15:03:42;4.35;;;1.35;;
20671;SDS011;10495;50.922;4.760;2022-09-01T15:06:11;4.18;;;1.70;;
20671;SDS011;10495;50.922;4.760;2022-09-01T15:08:41;1.95;;;1.60;;
20671;SDS011;10495;50.922;4.760;2022-09-01T15:11:11;4.85;;;2.08;;
20671;SDS011;10495;50.922;4.760;2022-09-01T15:13:38;3.58;;;1.80;;
20671;SDS011;10495;50.922;4.760;2022-09-01T15:16:04;3.35;;;1.75;;
20671;SDS011;10495;50.922;4.760;2022-09-01T15:18:36;1.73;;;1.55;;
20671;SDS011;10495;50.922;4.760;2022-09-01T15:21:03;3.22;;;1.63;;
20671;SDS011;10495;50.922;4.760;2022-09-01T15:23:29;3.20;;;1.48;;
20671;SDS011;10495;50.922;4.760;2022-09-01T15:25:56;5.30;;;1.80;;
20671;SDS011;10495;50.922;4.760;2022-09-01T15:28:23;2.72;;;1.70;;
20671;SDS011;10495;50.922;4.760;2022-09-01T15:30:50;4.10;;;2.75;;
20671;SDS011;10495;50.922;4.760;2022-09-01T15:33:17;3.17;;;1.60;;
20671;SDS011;10495;50.922;4.760;2022-09-01T15:35:44;2.45;;;1.75;;
20671;SDS011;10495;50.922;4.760;2022-09-01T15:38:11;2.67;;;1.98;;
20671;SDS011;10495;50.922;4.760;2022-09-01T15:40:39;2.22;;;1.63;;
20671;SDS011;10495;50.922;4.760;2022-09-01T15:43:06;4.10;;;1.85;;
20671;SDS011;10495;50.922;4.760;2022-09-01T15:45:32;2.30;;;1.77;;
20671;SDS011;10495;50.922;4.760;2022-09-01T15:47:58;5.03;;;1.85;;
20671;SDS011;10495;50.922;4.760;2022-09-01T15:50:24;1.90;;;1.73;;
20671;SDS011;10495;50.922;4.760;2022-09-01T15:55:23;1.58;;;1.45;;
20671;SDS011;10495;50.922;4.760;2022-09-01T15:57:53;2.50;;;1.50;;
20671;SDS011;10495;50.922;4.760;2022-09-01T16:00:20;6.30;;;1.90;;
20671;SDS011;10495;50.922;4.760;2022-09-01T16:02:47;2.08;;;1.88;;
20671;SDS011;10495;50.922;4.760;2022-09-01T16:05:13;2.65;;;1.75;;
20671;SDS011;10495;50.922;4.760;2022-09-01T16:07:39;1.65;;;1.52;;
20671;SDS011;10495;50.922;4.760;2022-09-01T16:10:05;2.47;;;1.50;;